Terminal Aerodrome Forecast
Issued by NWS

Home | Current Version | Previous Version | Text Only | Print | Product List | Glossary On
Versions: 1 2 3 4 5 6 7 8 9 10 11 12 13 14 15
000
FTUS45 KABQ 271100
TAFROW
TAF
KROW 271140Z 2712/2812 VRB05KT P6SM VCSH SCT070 BKN100
     FM272100 16010KT P6SM VCTS SCT060CB BKN090
     FM280000 23008KT P6SM SCT100=

USA.gov is the U.S. government's official web portal to all federal, state and local government web resources and services.